地図

経路データ

SID SEASON NUMBER BASIN SUBBASIN NAME ISO_TIME NATURE LAT LON WMO_WIND WMO_PRES WMO_AGENCY TRACK_TYPE DIST2LAND LANDFALL IFLAG USA_AGENCY USA_ATCF_ID USA_LAT USA_LON USA_RECORD USA_STATUS USA_WIND USA_PRES USA_SSHS USA_R34_NE USA_R34_SE USA_R34_SW USA_R34_NW USA_R50_NE USA_R50_SE USA_R50_SW USA_R50_NW USA_R64_NE USA_R64_SE USA_R64_SW USA_R64_NW USA_POCI USA_ROCI USA_RMW USA_EYE TOKYO_LAT TOKYO_LON TOKYO_GRADE TOKYO_WIND TOKYO_PRES TOKYO_R50_DIR TOKYO_R50_LONG TOKYO_R50_SHORT TOKYO_R30_DIR TOKYO_R30_LONG TOKYO_R30_SHORT TOKYO_LAND CMA_LAT CMA_LON CMA_CAT CMA_WIND CMA_PRES HKO_LAT HKO_LON HKO_CAT HKO_WIND HKO_PRES NEWDELHI_LAT NEWDELHI_LON NEWDELHI_GRADE NEWDELHI_WIND NEWDELHI_PRES NEWDELHI_CI NEWDELHI_DP NEWDELHI_POCI REUNION_LAT REUNION_LON REUNION_TYPE REUNION_WIND REUNION_PRES REUNION_TNUM REUNION_CI REUNION_RMW REUNION_R34_NE REUNION_R34_SE REUNION_R34_SW REUNION_R34_NW REUNION_R50_NE REUNION_R50_SE REUNION_R50_SW REUNION_R50_NW REUNION_R64_NE REUNION_R64_SE REUNION_R64_SW REUNION_R64_NW BOM_LAT BOM_LON BOM_TYPE BOM_WIND BOM_PRES BOM_TNUM BOM_CI BOM_RMW BOM_R34_NE BOM_R34_SE BOM_R34_SW BOM_R34_NW BOM_R50_NE BOM_R50_SE BOM_R50_SW BOM_R50_NW BOM_R64_NE BOM_R64_SE BOM_R64_SW BOM_R64_NW BOM_ROCI BOM_POCI BOM_EYE BOM_POS_METHOD BOM_PRES_METHOD NADI_LAT NADI_LON NADI_CAT NADI_WIND NADI_PRES WELLINGTON_LAT WELLINGTON_LON WELLINGTON_WIND WELLINGTON_PRES DS824_LAT DS824_LON DS824_STAGE DS824_WIND DS824_PRES TD9636_LAT TD9636_LON TD9636_STAGE TD9636_WIND TD9636_PRES TD9635_LAT TD9635_LON TD9635_WIND TD9635_PRES TD9635_ROCI NEUMANN_LAT NEUMANN_LON NEUMANN_CLASS NEUMANN_WIND NEUMANN_PRES MLC_LAT MLC_LON MLC_CLASS MLC_WIND MLC_PRES USA_GUST BOM_GUST BOM_GUST_PER REUNION_GUST REUNION_GUST_PER USA_SEAHGT USA_SEARAD_NE USA_SEARAD_SE USA_SEARAD_SW USA_SEARAD_NW STORM_SPEED STORM_DIR
1931295N11142 1931 49 WP MM NOT_NAMED 1931-10-22 10:00:00 NR 11.3000 142.100 main 1508 1505 __________O___ -1 11.3000 142.100 7 17 294
1931295N11142 1931 49 WP MM NOT_NAMED 1931-10-22 12:00:00 NR 11.5353 141.563 main 1515 1512 __________P___ -1 11.5353 141.563 7 17 294
1931295N11142 1931 49 WP MM NOT_NAMED 1931-10-22 15:00:00 NR 11.8740 140.782 main 1522 1514 __________P___ -1 11.8740 140.782 7 16 294
1931295N11142 1931 49 WP MM NOT_NAMED 1931-10-22 18:00:00 NR 12.1787 140.070 main 1528 1497 __________P___ -1 12.1787 140.070 7 14 293
1931295N11142 1931 49 WP MM NOT_NAMED 1931-10-22 21:00:00 NR 12.4308 139.468 main 1497 1478 __________P___ -1 12.4308 139.468 7 12 293
1931295N11142 1931 49 WP MM NOT_NAMED 1931-10-22 22:00:00 NR 12.5000 139.300 main 1478 1448 __________O___ -1 12.5000 139.300 7 10 293
1931295N11142 1931 49 WP MM NOT_NAMED 1931-10-23 00:00:00 NR 12.6145 139.016 main 1448 1417 __________P___ -1 12.6145 139.016 7 8 292
1931295N11142 1931 49 WP MM NOT_NAMED 1931-10-23 03:00:00 NR 12.7427 138.691 main 1417 1386 __________P___ -1 12.7427 138.691 7 6 292
1931295N11142 1931 49 WP MM NOT_NAMED 1931-10-23 06:00:00 NR 12.8464 138.436 main 1386 1366 __________P___ -1 12.8464 138.436 7 5 294
1931295N11142 1931 49 WP MM NOT_NAMED 1931-10-23 09:00:00 NR 12.9566 138.190 main 1367 1357 __________P___ -1 12.9566 138.190 7 5 295
1931295N11142 1931 49 WP MM NOT_NAMED 1931-10-23 10:00:00 NR 13.0000 138.100 main 1357 1337 __________O___ -1 13.0000 138.100 7 7 294
1931295N11142 1931 49 WP MM NOT_NAMED 1931-10-23 12:00:00 NR 13.0898 137.880 main 1337 1296 __________P___ -1 13.0898 137.880 7 7 294
1931295N11142 1931 49 WP MM NOT_NAMED 1931-10-23 15:00:00 NR 13.2429 137.531 main 1296 1268 __________P___ -1 13.2429 137.531 7 8 296
1931295N11142 1931 49 WP MM NOT_NAMED 1931-10-23 18:00:00 NR 13.4377 137.155 main 1268 1222 __________P___ -1 13.4377 137.155 7 9 301
1931295N11142 1931 49 WP MM NOT_NAMED 1931-10-23 21:00:00 NR 13.6960 136.745 main 1222 1214 __________P___ -1 13.6960 136.745 7 10 304
1931295N11142 1931 49 WP MM NOT_NAMED 1931-10-23 22:00:00 NR 13.8000 136.600 main 1214 1176 __________O___ -1 13.8000 136.600 7 12 303
1931295N11142 1931 49 WP MM NOT_NAMED 1931-10-24 00:00:00 NR 14.0121 136.249 main 1176 1131 __________P___ -1 14.0121 136.249 7 13 304
1931295N11142 1931 49 WP MM NOT_NAMED 1931-10-24 03:00:00 NR 14.3923 135.689 main 1131 1088 __________P___ -1 14.3923 135.689 7 14 308
1931295N11142 1931 49 WP MM NOT_NAMED 1931-10-24 06:00:00 NR 14.8521 135.153 main 1091 1056 __________P___ -1 14.8521 135.153 7 14 317
1931295N11142 1931 49 WP MM NOT_NAMED 1931-10-24 09:00:00 NR 15.3978 134.713 main 1056 1049 __________P___ -1 15.3978 134.713 7 14 325
1931295N11142 1931 49 WP MM NOT_NAMED 1931-10-24 10:00:00 NR 15.6000 134.600 main 1053 1047 __________O___ -1 15.6000 134.600 7 14 336
1931295N11142 1931 49 WP MM NOT_NAMED 1931-10-24 12:00:00 NR 16.0309 134.422 main 1050 1053 __________P___ -1 16.0309 134.422 7 14 345
1931295N11142 1931 49 WP MM NOT_NAMED 1931-10-24 15:00:00 NR 16.7534 134.268 main 1078 1074 __________P___ -1 16.7534 134.268 7 15 354
1931295N11142 1931 49 WP MM NOT_NAMED 1931-10-24 18:00:00 NR 17.5340 134.244 main 1107 1113 __________P___ -1 17.5340 134.244 7 16 2
1931295N11142 1931 49 WP MM NOT_NAMED 1931-10-24 21:00:00 NR 18.3350 134.341 main 1164 1179 __________P___ -1 18.3350 134.341 7 16 8
1931295N11142 1931 49 WP MM NOT_NAMED 1931-10-24 22:00:00 NR 18.6000 134.400 main 1189 1189 __________O___ -1 18.6000 134.400 7 16 13
1931295N11142 1931 49 WP MM NOT_NAMED 1931-10-25 00:00:00 NR 19.1130 134.525 main 1223 1228 __________P___ -1 19.1130 134.525 7 16 17
1931295N11142 1931 49 WP MM NOT_NAMED 1931-10-25 03:00:00 NR 19.8829 134.815 main 1293 1245 __________P___ -1 19.8829 134.815 7 17 23
1931295N11142 1931 49 WP MM NOT_NAMED 1931-10-25 06:00:00 NR 20.6394 135.198 main 1245 1177 __________P___ -1 20.6394 135.198 7 17 28
1931295N11142 1931 49 WP MM NOT_NAMED 1931-10-25 09:00:00 NR 21.3667 135.644 main 1177 1165 __________P___ -1 21.3667 135.644 7 17 30
1931295N11142 1931 49 WP MM NOT_NAMED 1931-10-25 10:00:00 NR 21.6000 135.800 main 1165 1129 __________O___ -1 21.6000 135.800 3 17 32
1931295N11142 1931 49 WP MM NOT_NAMED 1931-10-25 12:00:00 NR 22.0771 136.122 main 1129 1085 __________P___ -1 22.0771 136.122 3 17 34
1931295N11142 1931 49 WP MM NOT_NAMED 1931-10-25 15:00:00 NR 22.7618 136.643 main 1085 1055 __________P___ -1 22.7618 136.643 3 16 36
1931295N11142 1931 49 WP MM NOT_NAMED 1931-10-25 18:00:00 NR 23.3895 137.170 main 1060 1035 __________P___ -1 23.3895 137.170 3 15 38
1931295N11142 1931 49 WP MM NOT_NAMED 1931-10-25 21:00:00 NR 23.9383 137.656 main 1041 1029 __________P___ -1 23.9383 137.656 3 14 39
1931295N11142 1931 49 WP MM NOT_NAMED 1931-10-25 22:00:00 NR 24.1000 137.800 main 1029 1014 __________O___ -1 24.1000 137.800 4 11 37
1931295N11142 1931 49 WP MM NOT_NAMED 1931-10-26 00:00:00 NR 24.3869 138.032 main 1014 998 __________P___ -1 24.3869 138.032 4 10 36
1931295N11142 1931 49 WP MM NOT_NAMED 1931-10-26 03:00:00 NR 24.7424 138.320 main 1000 973 __________P___ -1 24.7424 138.320 4 8 37
1931295N11142 1931 49 WP MM NOT_NAMED 1931-10-26 06:00:00 NR 25.0385 138.569 main 975 949 __________P___ -1 25.0385 138.569 4 7 38
1931295N11142 1931 49 WP MM NOT_NAMED 1931-10-26 09:00:00 NR 25.3094 138.813 main 949 941 __________P___ -1 25.3094 138.813 4 7 39
1931295N11142 1931 49 WP MM NOT_NAMED 1931-10-26 10:00:00 NR 25.4000 138.900 main 941 926 __________O___ -1 25.4000 138.900 4 7 42
1931295N11142 1931 49 WP MM NOT_NAMED 1931-10-26 12:00:00 NR 25.5871 139.086 main 926 906 __________P___ -1 25.5871 139.086 4 8 43
1931295N11142 1931 49 WP MM NOT_NAMED 1931-10-26 15:00:00 NR 25.8807 139.395 main 906 886 __________P___ -1 25.8807 139.395 4 8 44
1931295N11142 1931 49 WP MM NOT_NAMED 1931-10-26 18:00:00 NR 26.1855 139.730 main 886 869 __________P___ -1 26.1855 139.730 4 9 45
1931295N11142 1931 49 WP MM NOT_NAMED 1931-10-26 21:00:00 NR 26.4961 140.081 main 873 868 __________P___ -1 26.4961 140.081 4 9 45
1931295N11142 1931 49 WP MM NOT_NAMED 1931-10-26 22:00:00 NR 26.6000 140.200 main 868 __________O___ -1 26.6000 140.200 4 9 45

デジタル台風データ・検索

IBTrACS Databaseについて

本データベースは、米国NOAAが公開する1842年以降の世界の熱帯低気圧のベストトラックデータアーカイブInternational Best Track Archive for Climate Stewardship (IBTrACS)を、ウェブで閲覧しやすい形式に変換したものです。

最終更新日:2021-10-08